Time;durP1;ratioP1;P1;durP2;ratioP2;P2;SDS_P1;SDS_P2;PMS_P1;PMS_P2;Temp;Humidity;BMP_temperature;BMP_pressure;BME280_temperature;BME280_humidity;BME280_pressure;Samples;Min_cycle;Max_cycle;Signal;HPM_P1;HPM_P2
2023/10/09 00:02:54;;;;;;;7.80;3.33;;;;;;;13.30;100.00;101935.38;4952848;28;20519;-78
2023/10/09 00:05:38;;;;;;;8.20;3.22;;;;;;;13.30;100.00;101950.34;4934219;28;20050;-78
2023/10/09 00:08:05;;;;;;;4.93;2.83;;;;;;;13.30;100.00;101942.41;4931063;29;20043;-77
2023/10/09 00:10:45;;;;;;;5.63;2.90;;;;;;;13.30;100.00;101902.72;4934330;28;20055;-78
2023/10/09 00:13:12;;;;;;;8.27;2.80;;;;;;;13.30;100.00;101910.66;4895757;29;20071;-77
2023/10/09 00:15:42;;;;;;;8.07;3.50;;;;;;;13.30;100.00;101929.19;4933322;29;20052;-77
2023/10/09 00:18:12;;;;;;;5.75;3.17;;;;;;;13.30;100.00;101926.53;4935677;28;20051;-77
2023/10/09 00:20:42;;;;;;;4.88;2.92;;;;;;;13.27;100.00;101925.63;4939506;28;20043;-78
2023/10/09 00:23:16;;;;;;;4.90;3.03;;;;;;;13.29;100.00;101907.13;4943173;28;20047;-78
2023/10/09 00:26:08;;;;;;;5.95;3.28;;;;;;;13.30;100.00;101887.75;4951680;28;20055;-78
2023/10/09 00:28:38;;;;;;;5.05;2.97;;;;;;;13.31;100.00;101892.19;4906669;28;20412;-78
2023/10/09 00:31:07;;;;;;;6.95;3.13;;;;;;;13.32;100.00;101890.41;4946146;28;20512;-78
2023/10/09 00:33:35;;;;;;;5.45;2.70;;;;;;;13.32;100.00;101883.34;4952351;28;20051;-78
2023/10/09 00:36:10;;;;;;;6.90;3.50;;;;;;;13.35;100.00;101887.81;4952026;28;20043;-78
2023/10/09 00:38:50;;;;;;;6.05;3.38;;;;;;;13.33;100.00;101890.44;4924375;29;20051;-78
2023/10/09 00:41:22;;;;;;;6.90;3.33;;;;;;;13.34;100.00;101883.38;4929907;29;20051;-78
2023/10/09 00:43:49;;;;;;;7.97;3.50;;;;;;;13.35;100.00;101866.63;4902197;29;20520;-78
2023/10/09 00:49:00;;;;;;;10.73;3.95;;;;;;;13.34;100.00;101856.88;4950895;28;20054;-77
2023/10/09 00:51:34;;;;;;;6.63;3.22;;;;;;;13.32;100.00;101848.06;4917636;29;20059;-77
2023/10/09 00:54:13;;;;;;;7.78;3.70;;;;;;;13.32;100.00;101840.13;4922130;29;20054;-78
2023/10/09 00:56:52;;;;;;;11.98;3.80;;;;;;;13.30;100.00;101829.50;4946598;28;20043;-78
2023/10/09 00:59:20;;;;;;;6.72;3.42;;;;;;;13.28;100.00;101823.28;4907830;28;20051;-78
2023/10/09 01:01:56;;;;;;;8.93;3.75;;;;;;;13.29;100.00;101821.50;4947749;28;20055;-78
2023/10/09 01:04:28;;;;;;;5.93;3.35;;;;;;;13.27;100.00;101825.06;4925997;28;20070;-77
2023/10/09 01:07:08;;;;;;;8.18;3.55;;;;;;;13.26;100.00;101828.56;4934390;28;20043;-78
2023/10/09 01:09:38;;;;;;;6.18;3.70;;;;;;;13.25;100.00;101829.44;4900013;28;20054;-78
2023/10/09 01:12:05;;;;;;;14.57;4.25;;;;;;;13.24;100.00;101830.31;4930692;28;20047;-78
2023/10/09 01:14:36;;;;;;;8.45;4.22;;;;;;;13.24;100.00;101830.31;4918708;28;20268;-78
2023/10/09 01:17:29;;;;;;;8.93;4.32;;;;;;;13.24;100.00;101835.59;4942107;28;20055;-78
2023/10/09 01:19:55;;;;;;;6.53;3.65;;;;;;;13.24;100.00;101824.13;4936877;29;20801;-78
2023/10/09 01:22:23;;;;;;;12.05;4.45;;;;;;;13.23;100.00;101828.56;4939528;28;20051;-78
2023/10/09 01:24:51;;;;;;;11.80;4.70;;;;;;;13.24;100.00;101829.44;4893269;29;20055;-78
2023/10/09 01:27:22;;;;;;;7.70;4.88;;;;;;;13.23;100.00;101817.97;4929029;29;20051;-77
2023/10/09 01:29:51;;;;;;;6.38;4.60;;;;;;;13.25;100.00;101799.44;4900878;28;20133;-77
2023/10/09 01:32:19;;;;;;;9.77;5.05;;;;;;;13.25;100.00;101802.06;4932064;28;20075;-77
2023/10/09 01:34:50;;;;;;;8.38;5.10;;;;;;;13.25;100.00;101794.13;4900952;28;20473;-77
2023/10/09 01:37:26;;;;;;;12.02;5.57;;;;;;;13.25;100.00;101795.03;4919263;28;20535;-77
2023/10/09 01:39:57;;;;;;;10.32;5.18;;;;;;;13.26;100.00;101799.44;4929503;29;20055;-78
2023/10/09 01:45:09;;;;;;;9.25;5.53;;;;;;;13.26;100.00;101783.56;4913587;28;21116;-77
2023/10/09 01:47:38;;;;;;;15.30;6.30;;;;;;;13.27;100.00;101787.13;4941454;28;20051;-77
2023/10/09 01:50:19;;;;;;;12.68;6.18;;;;;;;13.27;100.00;101780.06;4949176;28;20058;-78
2023/10/09 01:52:49;;;;;;;13.98;6.50;;;;;;;13.26;100.00;101780.91;4936201;28;20043;-77
2023/10/09 01:55:39;;;;;;;12.75;6.20;;;;;;;13.26;100.00;101767.69;4931310;29;20059;-77
2023/10/09 01:58:17;;;;;;;24.23;7.22;;;;;;;13.27;100.00;101758.88;4935393;28;20055;-77
2023/10/09 02:00:49;;;;;;;12.93;6.57;;;;;;;13.26;100.00;101757.09;4908272;28;20066;-77
2023/10/09 02:03:17;;;;;;;10.23;6.50;;;;;;;13.27;100.00;101761.53;4937041;28;20050;-77
2023/10/09 02:05:45;;;;;;;14.20;7.60;;;;;;;13.28;100.00;101743.88;4945934;28;20051;-77
2023/10/09 02:08:13;;;;;;;20.05;7.60;;;;;;;13.30;100.00;101743.88;4916774;29;20424;-77
2023/10/09 02:10:44;;;;;;;14.77;8.75;;;;;;;13.30;100.00;101744.81;4931925;28;20051;-77
2023/10/09 02:13:11;;;;;;;18.70;9.07;;;;;;;13.31;100.00;101735.09;4942519;28;20062;-77
2023/10/09 02:21:12;;;;;;;18.50;9.23;;;;;;;13.31;100.00;101714.81;4947488;28;20047;-77
2023/10/09 02:23:49;;;;;;;29.00;10.65;;;;;;;13.33;100.00;101717.47;4926217;28;20050;-77
2023/10/09 02:29:15;;;;;;;21.50;11.30;;;;;;;13.32;100.00;101710.41;4929794;29;20044;-77
2023/10/09 02:31:47;;;;;;;29.13;12.85;;;;;;;13.31;100.00;101708.63;4950047;28;20488;-77
2023/10/09 02:34:21;;;;;;;24.38;11.23;;;;;;;13.31;100.00;101701.59;4886284;29;20039;-77
2023/10/09 02:36:57;;;;;;;28.10;13.55;;;;;;;13.31;100.00;101703.31;4946105;28;20078;-77
2023/10/09 02:39:28;;;;;;;30.23;13.73;;;;;;;13.30;100.00;101686.56;4944396;28;20035;-77
2023/10/09 02:42:02;;;;;;;32.67;13.85;;;;;;;13.30;100.00;101670.69;4908626;28;20066;-77
2023/10/09 02:44:39;;;;;;;31.77;14.52;;;;;;;13.30;100.00;101664.47;4943381;28;20054;-77
2023/10/09 02:47:17;;;;;;;36.50;14.70;;;;;;;13.30;100.00;101665.38;4933375;29;20510;-77
2023/10/09 02:49:48;;;;;;;32.42;15.20;;;;;;;13.29;100.00;101663.59;4914300;28;20053;-77
2023/10/09 02:52:18;;;;;;;;;;;;;;;13.27;100.00;101652.13;4946885;28;20055;-77
2023/10/09 02:54:47;;;;;;;40.08;15.60;;;;;;;13.27;100.00;101657.41;4934854;28;20286;-77
2023/10/09 02:57:23;;;;;;;30.27;14.25;;;;;;;13.27;100.00;101650.34;4950607;28;20416;-77
2023/10/09 02:59:51;;;;;;;33.92;15.43;;;;;;;13.27;100.00;101650.34;4921391;28;20058;-77
2023/10/09 03:02:19;;;;;;;35.72;16.67;;;;;;;13.28;100.00;101664.47;4919059;28;20052;-78
2023/10/09 03:04:46;;;;;;;39.25;16.48;;;;;;;13.27;100.00;101666.25;4902995;28;20412;-78
2023/10/09 03:07:14;;;;;;;35.33;15.68;;;;;;;13.28;100.00;101661.81;4929070;29;20432;-78
2023/10/09 03:09:41;;;;;;;34.38;15.30;;;;;;;13.27;100.00;101654.78;4940078;28;20050;-78
2023/10/09 03:12:12;;;;;;;36.53;16.58;;;;;;;13.27;100.00;101662.72;4946908;28;20404;-77
2023/10/09 03:14:41;;;;;;;37.47;16.17;;;;;;;13.26;100.00;101664.44;4933699;28;20052;-78
2023/10/09 03:17:13;;;;;;;32.00;15.35;;;;;;;13.27;100.00;101654.78;4929914;29;20039;-78
2023/10/09 03:19:43;;;;;;;36.95;16.00;;;;;;;13.26;100.00;101650.34;4932521;28;20429;-78
2023/10/09 03:22:11;;;;;;;32.80;15.32;;;;;;;13.27;100.00;101652.13;4898827;28;20712;-79
2023/10/09 03:24:44;;;;;;;33.13;16.73;;;;;;;13.27;100.00;101655.66;4941693;28;20050;-78
2023/10/09 03:27:18;;;;;;;30.63;15.32;;;;;;;13.28;100.00;101648.59;4926195;28;20048;-79
2023/10/09 03:29:53;;;;;;;39.20;17.02;;;;;;;13.29;100.00;101649.47;4936220;28;20044;-79
2023/10/09 03:32:21;;;;;;;34.55;16.50;;;;;;;13.30;100.00;101659.19;4931991;28;20055;-78
2023/10/09 03:34:51;;;;;;;37.25;16.70;;;;;;;13.30;100.00;101653.91;4944708;28;20047;-78
2023/10/09 03:37:28;;;;;;;40.28;18.48;;;;;;;13.31;100.00;101653.03;4916365;28;20039;-78
2023/10/09 03:39:55;;;;;;;38.38;17.63;;;;;;;13.30;100.00;101646.88;4947196;28;20059;-78
2023/10/09 03:42:24;;;;;;;40.25;17.58;;;;;;;13.32;100.00;101646.88;4911144;28;20043;-78
2023/10/09 03:44:53;;;;;;;40.03;17.77;;;;;;;13.33;100.00;101651.31;4941136;28;20055;-79
2023/10/09 03:47:22;;;;;;;46.70;21.90;;;;;;;13.34;100.00;101648.63;4916219;28;20044;-78
2023/10/09 03:49:53;;;;;;;46.40;21.02;;;;;;;13.36;100.00;101654.81;4944005;28;20066;-77
2023/10/09 03:52:25;;;;;;;44.85;21.05;;;;;;;13.36;100.00;101659.25;4907899;28;20046;-79
2023/10/09 03:54:54;;;;;;;43.25;21.58;;;;;;;13.38;100.00;101654.84;4930619;28;20047;-78
2023/10/09 03:57:23;;;;;;;54.28;22.88;;;;;;;13.39;100.00;101651.31;4941294;28;20039;-77
2023/10/09 03:59:51;;;;;;;56.67;24.10;;;;;;;13.41;100.00;101646.91;4914500;28;20082;-77
2023/10/09 04:02:22;;;;;;;56.20;24.13;;;;;;;13.43;100.00;101650.44;4894449;28;20488;-77
2023/10/09 04:04:50;;;;;;;53.45;24.60;;;;;;;13.44;100.00;101662.84;4948265;28;20066;-78
2023/10/09 04:07:18;;;;;;;59.58;24.45;;;;;;;13.46;100.00;101663.72;4905384;28;20055;-79
2023/10/09 04:09:47;;;;;;;50.88;24.25;;;;;;;13.47;100.00;101661.94;4933452;28;20063;-78
2023/10/09 04:12:24;;;;;;;62.63;26.27;;;;;;;13.48;100.00;101664.59;4956982;28;20051;-78
2023/10/09 04:15:00;;;;;;;55.85;25.23;;;;;;;13.50;100.00;101665.50;4948579;28;20622;-78
2023/10/09 04:17:34;;;;;;;58.95;25.52;;;;;;;13.51;100.00;101659.31;4909358;29;20055;-77
2023/10/09 04:22:59;;;;;;;56.60;25.70;;;;;;;13.53;100.00;101657.53;4902942;28;20051;-79
2023/10/09 04:25:41;;;;;;;60.25;26.00;;;;;;;13.53;100.00;101660.19;4959522;28;20050;-79
2023/10/09 04:28:18;;;;;;;54.20;25.83;;;;;;;13.55;100.00;101654.91;4947932;28;20043;-78
2023/10/09 04:30:46;;;;;;;42.78;23.02;;;;;;;13.56;100.00;101649.63;4936034;29;20056;-77
2023/10/09 04:36:26;;;;;;;59.30;25.23;;;;;;;13.59;100.00;101628.47;4952238;28;20047;-77
2023/10/09 04:41:51;;;;;;;60.75;26.35;;;;;;;13.61;100.00;101616.09;4924994;28;20448;-77
2023/10/09 04:44:19;;;;;;;66.35;27.77;;;;;;;13.62;100.00;101615.22;4938453;28;20047;-77
2023/10/09 04:47:25;;;;;;;58.83;26.55;;;;;;;13.64;100.00;101602.84;4921591;29;20504;-77
2023/10/09 04:52:51;;;;;;;66.90;27.58;;;;;;;13.67;100.00;101599.34;4942797;28;20047;-77
2023/10/09 04:57:46;;;;;;;67.40;27.75;;;;;;;13.69;100.00;101597.59;4950216;28;20054;-78
2023/10/09 05:03:07;;;;;;;70.30;29.15;;;;;;;13.70;100.00;101609.94;4914401;29;20059;-77
2023/10/09 05:08:29;;;;;;;74.30;30.63;;;;;;;13.73;100.00;101609.94;4920543;28;20051;-77
2023/10/09 05:16:25;;;;;;;77.70;30.77;;;;;;;13.84;100.00;101599.38;4928934;28;20056;-77
2023/10/09 05:19:06;;;;;;;68.63;28.60;;;;;;;13.87;100.00;101599.38;4940512;28;20519;-79
2023/10/09 05:37:43;;;;;;;50.80;20.83;;;;;;;14.15;100.00;101621.47;4939731;28;20504;-79
2023/10/09 05:40:22;;;;;;;51.92;20.30;;;;;;;14.21;100.00;101623.25;4947954;28;20050;-78
2023/10/09 05:42:59;;;;;;;46.30;18.00;;;;;;;14.28;100.00;101642.72;4934690;28;20065;-78
2023/10/09 05:46:07;;;;;;;41.40;19.30;;;;;;;14.32;100.00;101640.06;4952135;28;20053;-78
2023/10/09 05:51:10;;;;;;;44.80;17.98;;;;;;;14.41;100.00;101655.97;4966779;28;20051;-78
2023/10/09 06:05:19;;;;;;;42.47;16.05;;;;;;;14.58;100.00;101645.38;4928139;28;20061;-78
2023/10/09 06:07:24;;;;;;;37.38;15.40;;;;;;;14.63;100.00;101658.66;4951692;28;20066;-78
2023/10/09 06:09:56;;;;;;;32.85;16.20;;;;;;;14.64;100.00;101660.41;4950248;28;20058;-78
2023/10/09 06:12:49;;;;;;;29.10;14.05;;;;;;;14.67;100.00;101678.09;4887674;28;20419;-77
2023/10/09 06:18:25;;;;;;;28.42;13.93;;;;;;;14.73;100.00;101670.16;4940078;28;20050;-78
2023/10/09 06:21:08;;;;;;;25.38;13.38;;;;;;;14.74;100.00;101659.50;4938108;28;20512;-79
2023/10/09 06:26:33;;;;;;;30.85;13.68;;;;;;;14.77;100.00;101640.94;4929758;28;20067;-77
2023/10/09 06:29:16;;;;;;;25.27;12.07;;;;;;;14.77;100.00;101638.28;4894240;28;20039;-77
2023/10/09 06:31:57;;;;;;;25.05;11.25;;;;;;;14.80;100.00;101645.34;4941742;28;20054;-77
2023/10/09 06:34:35;;;;;;;29.67;12.10;;;;;;;14.80;100.00;101650.66;4947530;28;20054;-78
2023/10/09 06:37:07;;;;;;;31.88;13.10;;;;;;;14.81;100.00;101655.97;4959173;28;20050;-77
2023/10/09 06:39:50;;;;;;;24.73;12.02;;;;;;;14.82;100.00;101652.44;4961016;28;20047;-78
2023/10/09 06:45:07;;;;;;;25.83;10.32;;;;;;;14.85;100.00;101648.88;4934522;28;20070;-77
2023/10/09 06:47:41;;;;;;;31.02;11.43;;;;;;;14.86;100.00;101657.72;4931739;28;20050;-77
2023/10/09 06:52:58;;;;;;;24.55;11.40;;;;;;;14.88;100.00;101661.28;4924701;28;20062;-77
2023/10/09 06:55:48;;;;;;;21.45;9.75;;;;;;;14.89;100.00;101669.22;4935483;28;20065;-77
2023/10/09 06:58:28;;;;;;;26.57;9.97;;;;;;;14.90;100.00;101676.31;4894791;29;20059;-79
2023/10/09 07:03:32;;;;;;;24.30;9.40;;;;;;;14.91;100.00;101672.75;4937176;28;20086;-77
2023/10/09 07:06:23;;;;;;;25.30;10.25;;;;;;;14.93;100.00;101678.06;4932158;29;20062;-78
2023/10/09 07:14:08;;;;;;;32.42;9.77;;;;;;;14.95;100.00;101673.63;4875602;28;20051;-78
2023/10/09 07:16:39;;;;;;;25.23;9.70;;;;;;;14.96;100.00;101676.28;4946573;29;20047;-77
2023/10/09 07:19:19;;;;;;;21.65;9.43;;;;;;;14.97;100.00;101667.47;4937940;28;20047;-77
2023/10/09 07:21:53;;;;;;;17.80;8.48;;;;;;;14.98;100.00;101676.31;4938546;28;20060;-77
2023/10/09 07:24:37;;;;;;;20.92;9.25;;;;;;;14.99;100.00;101672.78;4900614;28;20055;-77
2023/10/09 07:27:11;;;;;;;30.42;9.88;;;;;;;15.02;100.00;101667.44;4942856;29;20051;-78
2023/10/09 07:29:48;;;;;;;25.83;9.90;;;;;;;15.01;100.00;101668.34;4894392;28;20043;-78
2023/10/09 07:32:20;;;;;;;27.02;9.60;;;;;;;15.03;100.00;101669.22;4909414;29;20047;-78
2023/10/09 07:34:54;;;;;;;25.70;8.93;;;;;;;15.04;100.00;101668.31;4907663;28;20420;-77
2023/10/09 07:37:30;;;;;;;25.13;9.57;;;;;;;15.05;100.00;101677.16;4894485;28;20541;-77
2023/10/09 07:39:58;;;;;;;23.58;8.13;;;;;;;15.05;100.00;101678.06;4923974;28;20051;-78
2023/10/09 07:48:00;;;;;;;22.45;9.10;;;;;;;15.10;100.00;101672.72;4949915;29;20058;-78
2023/10/09 07:53:17;;;;;;;25.85;9.45;;;;;;;15.12;100.00;101674.50;4912049;29;20043;-78
2023/10/09 07:55:55;;;;;;;24.45;8.55;;;;;;;15.13;100.00;101678.03;4950500;28;20058;-77
2023/10/09 07:58:27;;;;;;;26.77;9.93;;;;;;;15.15;100.00;101679.78;4951088;28;20054;-78
2023/10/09 08:03:32;;;;;;;22.58;7.93;;;;;;;15.17;100.00;101688.63;4955777;28;20491;-78
2023/10/09 08:06:37;;;;;;;26.30;9.13;;;;;;;15.18;100.00;101692.19;4942675;28;20050;-78
2023/10/09 08:14:41;;;;;;;19.17;8.35;;;;;;;15.19;100.00;101704.56;4938660;28;20051;-77
2023/10/09 08:19:55;;;;;;;28.42;8.75;;;;;;;15.21;100.00;101702.78;4970038;28;20042;-77
2023/10/09 08:24:57;;;;;;;24.38;8.98;;;;;;;15.22;100.00;101701.91;4929525;28;20066;-76
2023/10/09 08:30:28;;;;;;;21.15;8.05;;;;;;;15.25;100.00;101709.84;4940389;28;20043;-77
2023/10/09 08:33:02;;;;;;;22.23;7.80;;;;;;;15.27;100.00;101718.69;4880640;28;20046;-77
2023/10/09 08:35:35;;;;;;;25.67;8.25;;;;;;;15.28;100.00;101707.19;4943730;28;20061;-79
2023/10/09 08:38:10;;;;;;;25.48;9.48;;;;;;;15.33;100.00;101708.09;4960820;28;20066;-78
2023/10/09 08:40:42;;;;;;;23.50;9.07;;;;;;;15.36;100.00;101702.75;4919488;29;20578;-78
2023/10/09 08:43:14;;;;;;;22.65;9.02;;;;;;;15.39;100.00;101708.06;4935582;28;20429;-78
2023/10/09 08:45:47;;;;;;;23.52;8.95;;;;;;;15.40;100.00;101719.56;4953551;28;20051;-78
2023/10/09 08:48:18;;;;;;;20.42;7.57;;;;;;;15.39;100.00;101713.38;4937304;28;20047;-78
2023/10/09 08:50:46;;;;;;;;;;;;;;;15.40;100.00;101711.59;4964501;28;20050;-78
2023/10/09 08:53:16;;;;;;;18.40;7.65;;;;;;;15.40;100.00;101698.31;4940199;28;19941;-78
2023/10/09 08:55:43;;;;;;;24.23;7.72;;;;;;;15.42;100.00;101712.47;4955162;28;20047;-79
2023/10/09 08:58:32;;;;;;;17.05;7.65;;;;;;;15.43;100.00;101713.38;4925579;28;20074;-78
2023/10/09 09:01:00;;;;;;;25.27;7.75;;;;;;;15.43;100.00;101718.69;4968204;28;20047;-78
2023/10/09 09:03:39;;;;;;;23.85;8.43;;;;;;;15.42;100.00;101712.47;4917746;28;20050;-78
2023/10/09 09:06:06;;;;;;;25.92;7.65;;;;;;;15.44;100.00;101712.47;4941561;28;20051;-77
2023/10/09 09:08:36;;;;;;;23.85;8.15;;;;;;;15.44;100.00;101716.00;4921719;28;20055;-78
2023/10/09 09:11:23;;;;;;;36.80;8.52;;;;;;;15.49;100.00;101708.03;4923276;28;20050;-78
2023/10/09 09:13:53;;;;;;;19.85;8.63;;;;;;;15.52;100.00;101708.91;4955643;28;20046;-78
2023/10/09 09:16:29;;;;;;;22.13;8.25;;;;;;;15.55;100.00;101698.25;4945002;28;20050;-77
2023/10/09 09:19:17;;;;;;;16.45;7.50;;;;;;;15.59;100.00;101693.81;4938094;28;20401;-77
2023/10/09 09:21:59;;;;;;;25.38;8.73;;;;;;;15.63;100.00;101697.34;4942439;28;20415;-77
2023/10/09 09:24:30;;;;;;;19.95;7.72;;;;;;;15.69;100.00;101694.66;4963697;28;20424;-77
2023/10/09 09:27:21;;;;;;;20.90;8.38;;;;;;;15.73;100.00;101713.28;4935049;28;20054;-77
2023/10/09 09:29:57;;;;;;;22.75;8.10;;;;;;;15.77;100.00;101716.81;4954325;28;20051;-77
2023/10/09 09:32:38;;;;;;;21.95;8.23;;;;;;;15.80;100.00;101714.13;4908447;28;20062;-77
2023/10/09 09:35:17;;;;;;;20.33;8.88;;;;;;;15.84;100.00;101713.25;4941315;28;20050;-78
2023/10/09 09:37:54;;;;;;;22.77;7.88;;;;;;;15.85;100.00;101722.97;4946406;28;20617;-78
2023/10/09 09:40:32;;;;;;;19.85;7.38;;;;;;;15.87;100.00;101734.47;4923691;28;20043;-77
2023/10/09 09:43:05;;;;;;;21.13;7.63;;;;;;;15.89;100.00;101734.47;4967189;28;20487;-77
2023/10/09 09:45:34;;;;;;;32.80;7.72;;;;;;;15.90;100.00;101730.94;4940062;28;20078;-78
2023/10/09 09:48:06;;;;;;;20.70;7.43;;;;;;;15.91;100.00;101732.69;4910645;28;20054;-77
2023/10/09 09:50:43;;;;;;;20.33;7.03;;;;;;;15.92;100.00;101739.78;4933073;28;20065;-78
2023/10/09 09:53:17;;;;;;;20.00;7.15;;;;;;;15.91;100.00;101728.25;4969981;28;20043;-78
2023/10/09 09:55:57;;;;;;;24.52;7.13;;;;;;;15.92;100.00;101734.47;4925045;28;20059;-78
2023/10/09 09:58:42;;;;;;;21.00;6.88;;;;;;;15.93;100.00;101736.22;4922874;28;20054;-78
2023/10/09 10:01:17;;;;;;;16.67;6.10;;;;;;;15.94;100.00;101743.31;4942480;28;20047;-78
2023/10/09 10:03:50;;;;;;;21.15;6.75;;;;;;;15.94;100.00;101741.53;4887556;28;20866;-78
2023/10/09 10:06:25;;;;;;;22.30;7.50;;;;;;;15.95;100.00;101745.97;4957146;28;20074;-79
2023/10/09 10:08:54;;;;;;;20.85;6.97;;;;;;;15.95;100.00;101747.72;4930016;28;20078;-79
2023/10/09 10:12:03;;;;;;;25.73;7.00;;;;;;;15.96;100.00;101739.75;4971719;28;20050;-80
2023/10/09 10:14:52;;;;;;;20.45;7.25;;;;;;;15.98;100.00;101740.63;4885718;29;20056;-79
2023/10/09 10:17:22;;;;;;;17.13;6.30;;;;;;;15.97;100.00;101741.53;4937676;28;20050;-79
2023/10/09 10:22:51;;;;;;;26.95;8.77;;;;;;;16.00;100.00;101753.91;4971673;28;20058;-80
2023/10/09 10:25:32;;;;;;;22.40;7.72;;;;;;;16.01;100.00;101760.09;4914854;28;20535;-79
2023/10/09 10:28:38;;;;;;;27.42;7.53;;;;;;;16.01;100.00;101758.34;4927709;28;20526;-80
2023/10/09 10:31:09;;;;;;;26.45;6.72;;;;;;;16.00;100.00;101753.91;4964221;28;20049;-79
2023/10/09 10:33:55;;;;;;;17.20;6.75;;;;;;;16.01;100.00;101768.06;4920747;28;20061;-79
2023/10/09 10:36:24;;;;;;;18.20;6.43;;;;;;;16.00;100.00;101763.66;4948013;28;20488;-80
2023/10/09 10:39:21;;;;;;;19.55;6.68;;;;;;;16.01;100.00;101773.38;4948069;28;20050;-79
2023/10/09 10:41:57;;;;;;;17.73;5.82;;;;;;;15.98;100.00;101780.50;4958932;28;20058;-79
2023/10/09 10:44:38;;;;;;;12.10;6.28;;;;;;;15.97;100.00;101781.41;4925433;28;20062;-78
2023/10/09 10:47:24;;;;;;;16.23;6.05;;;;;;;15.96;100.00;101790.25;4954202;28;20061;-79
2023/10/09 10:49:57;;;;;;;14.95;5.95;;;;;;;15.96;100.00;101792.91;4913789;28;20046;-78
2023/10/09 10:52:35;;;;;;;15.23;5.43;;;;;;;15.95;100.00;101785.84;4932014;28;20057;-79
2023/10/09 10:57:54;;;;;;;15.07;5.53;;;;;;;15.97;100.00;101784.06;4937646;28;20055;-79
2023/10/09 11:03:13;;;;;;;19.48;5.60;;;;;;;16.03;100.00;101784.91;4922380;28;20054;-78
2023/10/09 11:05:42;;;;;;;14.25;5.43;;;;;;;16.08;100.00;101793.75;4935411;28;20044;-77
2023/10/09 11:08:10;;;;;;;11.63;4.45;;;;;;;16.10;100.00;101791.97;4945694;28;20054;-77
2023/10/09 11:10:49;;;;;;;17.60;4.35;;;;;;;16.13;100.00;101791.97;4923865;28;20038;-78
2023/10/09 11:13:30;;;;;;;11.95;3.97;;;;;;;16.16;100.00;101802.56;4924560;28;20834;-78
2023/10/09 11:16:28;;;;;;;12.38;3.72;;;;;;;16.16;100.00;101797.25;4952142;28;20043;-78
2023/10/09 11:18:57;;;;;;;17.77;5.05;;;;;;;16.15;100.00;101800.81;4943621;28;20407;-79
2023/10/09 11:21:31;;;;;;;11.15;3.95;;;;;;;16.14;100.00;101799.94;4916149;28;20539;-78
2023/10/09 11:24:23;;;;;;;13.85;4.93;;;;;;;16.14;100.00;101799.03;4948898;28;20411;-78
2023/10/09 11:26:54;;;;;;;9.70;3.58;;;;;;;16.13;100.00;101789.31;4939952;28;20046;-79
2023/10/09 11:29:23;;;;;;;14.43;3.60;;;;;;;16.11;100.00;101799.06;4914334;28;20067;-78
2023/10/09 11:32:18;;;;;;;12.60;3.72;;;;;;;16.11;100.00;101801.72;4943188;28;20047;-78
2023/10/09 11:34:53;;;;;;;13.82;3.95;;;;;;;16.12;100.00;101795.50;4931680;28;20082;-78
2023/10/09 11:40:00;;;;;;;11.05;3.88;;;;;;;16.22;100.00;101794.56;4951720;28;20053;-79
2023/10/09 11:42:38;;;;;;;15.93;3.80;;;;;;;16.26;100.00;101798.97;4927258;28;20529;-79
2023/10/09 11:45:19;;;;;;;17.10;5.13;;;;;;;16.27;100.00;101783.91;4949312;28;20046;-79
2023/10/09 11:48:04;;;;;;;16.33;4.10;;;;;;;16.27;100.00;101781.25;4970950;28;20053;-79
2023/10/09 11:51:18;;;;;;;13.07;3.50;;;;;;;16.28;100.00;101791.88;4944515;28;20058;-80
2023/10/09 11:53:54;;;;;;;13.57;3.95;;;;;;;16.28;100.00;101789.22;4954640;28;20492;-79
2023/10/09 11:56:23;;;;;;;13.20;4.40;;;;;;;16.27;100.00;101795.41;4955771;28;20049;-78
2023/10/09 11:58:51;;;;;;;13.38;3.60;;;;;;;16.25;100.00;101786.56;4920236;29;20047;-78
2023/10/09 12:01:23;;;;;;;12.05;4.00;;;;;;;16.22;100.00;101794.56;4899921;28;20057;-79
2023/10/09 12:03:51;;;;;;;15.13;4.00;;;;;;;16.21;100.00;101794.56;4946321;28;20503;-79
2023/10/09 12:06:22;;;;;;;10.77;4.30;;;;;;;16.18;100.00;101787.47;4922008;28;20046;-79
2023/10/09 12:08:50;;;;;;;12.63;3.50;;;;;;;16.17;100.00;101796.38;4922250;28;21499;-79
2023/10/09 12:11:28;;;;;;;10.20;3.17;;;;;;;16.16;100.00;101778.63;4960356;28;20051;-79
2023/10/09 12:13:58;;;;;;;11.93;3.53;;;;;;;16.15;100.00;101777.75;4929133;28;20059;-79
2023/10/09 12:16:32;;;;;;;17.80;3.95;;;;;;;16.13;100.00;101779.53;4903033;28;20522;-79
2023/10/09 12:19:02;;;;;;;15.27;3.83;;;;;;;16.14;100.00;101777.75;4957340;28;20051;-79
2023/10/09 12:21:29;;;;;;;10.27;3.67;;;;;;;16.15;100.00;101784.84;4938878;28;20058;-79
2023/10/09 12:23:57;;;;;;;12.32;4.00;;;;;;;16.16;100.00;101775.97;4896155;29;20062;-79
2023/10/09 12:26:31;;;;;;;14.05;3.97;;;;;;;16.20;100.00;101775.09;4915785;29;20563;-79
2023/10/09 12:28:58;;;;;;;11.68;3.47;;;;;;;16.21;100.00;101779.50;4922062;29;20051;-80
2023/10/09 12:31:26;;;;;;;9.32;3.58;;;;;;;16.21;100.00;101787.47;4909873;29;20047;-79
2023/10/09 12:33:54;;;;;;;12.40;4.18;;;;;;;16.20;100.00;101783.06;4935175;28;20066;-79
2023/10/09 12:36:21;;;;;;;19.80;3.63;;;;;;;16.18;100.00;101784.81;4908715;29;20162;-79
2023/10/09 12:38:58;;;;;;;20.00;4.70;;;;;;;16.17;100.00;101788.38;4903975;28;20500;-79
2023/10/09 12:41:27;;;;;;;11.90;4.13;;;;;;;16.17;100.00;101780.41;4925549;29;20059;-79
2023/10/09 12:43:59;;;;;;;13.23;4.50;;;;;;;16.18;100.00;101779.50;4932688;28;20055;-80
2023/10/09 12:46:27;;;;;;;17.60;4.55;;;;;;;16.16;100.00;101776.88;4912979;29;20056;-79
2023/10/09 12:48:55;;;;;;;11.90;4.40;;;;;;;16.16;100.00;101773.31;4918621;28;20073;-79
2023/10/09 12:51:29;;;;;;;16.58;4.25;;;;;;;16.16;100.00;101775.97;4938398;28;21219;-79
2023/10/09 12:53:58;;;;;;;15.88;3.70;;;;;;;16.15;100.00;101779.53;4899025;28;20412;-79
2023/10/09 12:56:38;;;;;;;11.70;3.80;;;;;;;16.12;100.00;101780.44;4941543;28;20073;-79
2023/10/09 12:59:14;;;;;;;15.35;3.88;;;;;;;16.11;100.00;101783.09;4932181;28;20067;-78
2023/10/09 13:01:42;;;;;;;9.20;3.70;;;;;;;16.08;100.00;101778.66;4958361;28;20049;-79
2023/10/09 13:04:12;;;;;;;8.88;3.00;;;;;;;16.07;100.00;101784.03;4912503;28;20447;-78
2023/10/09 13:06:43;;;;;;;9.88;3.30;;;;;;;16.06;100.00;101783.13;4922589;28;20051;-79
2023/10/09 13:09:15;;;;;;;9.30;2.90;;;;;;;16.07;100.00;101789.34;4906391;28;20050;-78
2023/10/09 13:11:43;;;;;;;15.57;2.88;;;;;;;16.06;100.00;101788.44;4942863;28;20051;-78
2023/10/09 13:14:17;;;;;;;9.65;3.40;;;;;;;16.07;100.00;101792.88;4949111;28;20042;-78
2023/10/09 13:16:45;;;;;;;13.75;3.17;;;;;;;16.06;100.00;101793.75;4930457;28;20043;-78
2023/10/09 13:19:13;;;;;;;9.43;2.65;;;;;;;16.05;100.00;101797.31;4939438;28;20069;-78
2023/10/09 13:21:42;;;;;;;18.10;3.95;;;;;;;16.02;100.00;101797.31;4962151;28;20057;-78
2023/10/09 13:24:13;;;;;;;10.30;3.10;;;;;;;16.05;100.00;101801.72;4904410;28;20496;-78
2023/10/09 13:26:46;;;;;;;11.13;3.45;;;;;;;16.04;100.00;101795.53;4953588;28;20042;-78
2023/10/09 13:29:14;;;;;;;;;;;;;;;16.04;100.00;101808.81;4933778;28;20081;-78
2023/10/09 13:31:47;;;;;;;;;;;;;;;16.04;100.00;101814.13;4918447;28;19970;-78
2023/10/09 13:34:15;;;;;;;12.10;3.05;;;;;;;16.03;100.00;101816.81;4952315;28;19937;-79
2023/10/09 13:36:52;;;;;;;17.60;2.88;;;;;;;16.04;100.00;101816.81;4952861;28;20065;-78
2023/10/09 13:39:26;;;;;;;8.60;3.15;;;;;;;16.05;100.00;101815.94;4877429;28;20058;-78
2023/10/09 13:41:58;;;;;;;12.55;3.28;;;;;;;16.05;100.00;101823.00;4952139;28;20047;-78
2023/10/09 13:44:30;;;;;;;6.32;2.78;;;;;;;16.04;100.00;101823.91;4933074;28;20054;-78
2023/10/09 13:47:04;;;;;;;8.52;2.80;;;;;;;16.02;100.00;101825.69;4914111;28;20054;-77